Time;durP1;ratioP1;P1;durP2;ratioP2;P2;SDS_P1;SDS_P2;PMS_P1;PMS_P2;Temp;Humidity;BMP_temperature;BMP_pressure;BME280_temperature;BME280_humidity;BME280_pressure;Samples;Min_cycle;Max_cycle;Signal;HPM_P1;HPM_P2
2023/05/08 00:01:44;;;;;;;22.60;21.30;;;16.80;1.00;;;;;;5070091;28;20472;-78
2023/05/08 00:04:12;;;;;;;22.87;21.57;;;16.80;1.00;;;;;;5068169;28;20453;-79
2023/05/08 00:06:41;;;;;;;23.30;21.93;;;16.80;1.00;;;;;;5049574;28;21020;-79
2023/05/08 00:09:10;;;;;;;23.70;22.50;;;16.80;1.00;;;;;;5070377;28;20472;-79
2023/05/08 00:11:38;;;;;;;24.83;23.13;;;16.90;1.00;;;;;;5072765;28;20569;-79
2023/05/08 00:14:06;;;;;;;24.53;23.07;;;16.90;1.00;;;;;;5068526;28;21549;-79
2023/05/08 00:16:34;;;;;;;24.73;23.23;;;16.80;1.00;;;;;;5057649;28;20537;-79
2023/05/08 00:19:04;;;;;;;24.30;22.90;;;16.90;1.00;;;;;;5073353;28;20458;-79
2023/05/08 00:21:32;;;;;;;24.87;23.10;;;16.80;1.00;;;;;;5066957;28;20484;-79
2023/05/08 00:24:00;;;;;;;24.20;22.80;;;16.80;1.00;;;;;;5073459;28;20461;-79
2023/05/08 00:26:28;;;;;;;24.90;23.53;;;16.80;1.00;;;;;;5071871;28;20456;-78
2023/05/08 00:28:57;;;;;;;23.70;22.43;;;16.80;1.00;;;;;;5070065;28;20468;-79
2023/05/08 00:31:25;;;;;;;23.93;22.63;;;16.80;1.00;;;;;;5073992;28;20882;-79
2023/05/08 00:33:53;;;;;;;22.57;21.37;;;16.80;1.00;;;;;;5076285;28;20713;-79
2023/05/08 00:36:23;;;;;;;24.97;23.10;;;16.80;1.00;;;;;;5074633;28;20970;-79
2023/05/08 00:38:52;;;;;;;24.00;22.50;;;16.80;1.00;;;;;;5074181;28;20468;-81
2023/05/08 00:41:21;;;;;;;22.40;21.30;;;16.80;1.00;;;;;;5073067;28;20468;-79
2023/05/08 00:43:49;;;;;;;24.73;23.30;;;16.80;1.00;;;;;;5070377;28;20800;-79
2023/05/08 00:46:18;;;;;;;24.57;22.97;;;16.80;1.00;;;;;;5074373;28;20543;-79
2023/05/08 00:48:47;;;;;;;25.70;24.10;;;16.80;1.00;;;;;;5056726;28;20468;-80
2023/05/08 00:51:16;;;;;;;24.73;23.33;;;16.80;1.00;;;;;;5074869;28;20572;-80
2023/05/08 00:53:46;;;;;;;25.57;24.07;;;16.80;1.00;;;;;;5054995;28;20664;-76
2023/05/08 00:56:16;;;;;;;25.73;23.93;;;16.80;1.00;;;;;;5074865;28;20473;-80
2023/05/08 00:58:45;;;;;;;24.17;22.90;;;16.80;1.00;;;;;;5070177;28;21097;-79
2023/05/08 01:01:14;;;;;;;24.83;23.33;;;16.80;1.00;;;;;;5070572;28;20450;-79
2023/05/08 01:03:43;;;;;;;24.70;23.00;;;16.80;1.00;;;;;;5075527;28;20475;-79
2023/05/08 01:06:12;;;;;;;24.30;23.00;;;16.80;1.00;;;;;;5075402;28;20518;-80
2023/05/08 01:08:46;;;;;;;25.80;24.10;;;16.90;1.00;;;;;;5071166;28;20840;-80
2023/05/08 01:11:22;;;;;;;24.23;22.90;;;16.80;1.00;;;;;;5057788;28;20469;-79
2023/05/08 01:13:58;;;;;;;24.80;23.30;;;16.80;1.00;;;;;;5074635;28;20454;-79
2023/05/08 01:16:37;;;;;;;25.33;23.80;;;16.70;1.00;;;;;;5073357;28;20461;-80
2023/05/08 01:19:40;;;;;;;26.33;24.83;;;16.70;1.00;;;;;;5056486;28;21308;-79
2023/05/08 01:22:18;;;;;;;24.07;22.63;;;16.70;1.00;;;;;;5078722;28;20478;-79
2023/05/08 01:25:20;;;;;;;26.63;24.77;;;16.70;1.00;;;;;;5077982;28;20450;-79
2023/05/08 01:28:18;;;;;;;24.90;23.50;;;16.70;1.00;;;;;;5039377;28;20900;-79
2023/05/08 01:31:05;;;;;;;26.40;24.70;;;16.70;1.00;;;;;;5077094;28;20584;-79
2023/05/08 01:33:42;;;;;;;26.67;25.03;;;16.70;1.00;;;;;;5077491;28;20451;-79
2023/05/08 01:36:26;;;;;;;25.37;23.70;;;16.80;1.00;;;;;;5079241;28;20462;-78
2023/05/08 01:39:11;;;;;;;26.03;24.30;;;16.80;1.00;;;;;;5072668;28;20470;-79
2023/05/08 01:41:45;;;;;;;25.27;23.87;;;16.80;1.00;;;;;;5076349;28;20525;-79
2023/05/08 01:44:18;;;;;;;24.47;23.07;;;16.70;1.00;;;;;;5077383;28;20730;-79
2023/05/08 01:46:50;;;;;;;25.63;24.03;;;16.80;1.00;;;;;;5076497;28;20493;-80
2023/05/08 01:49:26;;;;;;;26.23;24.50;;;16.80;1.00;;;;;;5072300;28;20446;-79
2023/05/08 01:52:02;;;;;;;26.03;24.33;;;16.80;1.00;;;;;;5072407;28;20483;-79
2023/05/08 01:54:39;;;;;;;26.17;24.43;;;16.70;1.00;;;;;;5073274;28;20452;-79
2023/05/08 01:57:10;;;;;;;26.33;24.70;;;16.70;1.00;;;;;;5079393;28;21045;-80
2023/05/08 01:59:41;;;;;;;25.37;23.77;;;16.80;1.00;;;;;;5077014;28;20684;-79
2023/05/08 02:02:11;;;;;;;26.33;24.67;;;16.70;1.00;;;;;;5075598;28;21041;-79
2023/05/08 02:04:43;;;;;;;26.80;25.00;;;16.70;1.00;;;;;;5075932;28;20449;-79
2023/05/08 02:07:11;;;;;;;25.97;24.47;;;16.70;1.00;;;;;;5072960;28;20476;-79
2023/05/08 02:09:42;;;;;;;27.53;25.50;;;16.70;1.00;;;;;;5075483;28;21004;-79
2023/05/08 02:12:12;;;;;;;26.63;24.93;;;16.70;1.00;;;;;;5077138;28;20585;-79
2023/05/08 02:14:43;;;;;;;26.50;24.63;;;16.70;1.00;;;;;;5075668;28;20464;-79
2023/05/08 02:17:14;;;;;;;25.73;24.03;;;16.70;1.00;;;;;;5076052;28;20525;-80
2023/05/08 02:19:44;;;;;;;24.43;22.97;;;16.60;1.00;;;;;;5077512;28;21065;-79
2023/05/08 02:22:15;;;;;;;26.43;24.87;;;16.60;1.00;;;;;;5075667;28;21164;-80
2023/05/08 02:24:46;;;;;;;24.93;23.43;;;16.70;1.00;;;;;;5075198;28;20458;-78
2023/05/08 02:27:15;;;;;;;25.27;23.67;;;16.60;1.00;;;;;;5074804;28;20905;-81
2023/05/08 02:29:44;;;;;;;24.50;23.10;;;16.60;1.00;;;;;;5069357;28;20498;-80
2023/05/08 02:32:13;;;;;;;25.50;24.00;;;16.60;1.00;;;;;;5077126;28;20484;-79
2023/05/08 02:34:44;;;;;;;25.90;24.10;;;16.60;1.00;;;;;;5077784;28;20456;-79
2023/05/08 02:37:31;;;;;;;24.70;23.20;;;16.50;1.00;;;;;;5073377;28;20457;-79
2023/05/08 02:40:02;;;;;;;27.00;24.93;;;16.60;1.00;;;;;;5073380;28;21002;-80
2023/05/08 02:42:30;;;;;;;25.13;23.57;;;16.60;1.00;;;;;;5072483;28;20484;-79
2023/05/08 02:44:59;;;;;;;24.97;23.57;;;16.60;1.00;;;;;;5076599;28;20463;-80
2023/05/08 02:47:33;;;;;;;26.40;24.60;;;16.60;1.00;;;;;;5074201;28;20456;-80
2023/05/08 02:50:09;;;;;;;25.97;24.33;;;16.60;1.00;;;;;;5077085;28;21003;-81
2023/05/08 02:52:44;;;;;;;27.30;25.60;;;16.60;1.00;;;;;;5075391;28;20484;-79
2023/05/08 02:55:23;;;;;;;26.87;25.20;;;16.60;1.00;;;;;;5079250;28;20463;-80
2023/05/08 02:58:04;;;;;;;26.40;24.73;;;16.50;1.00;;;;;;5072882;28;20450;-79
2023/05/08 03:00:37;;;;;;;26.43;24.77;;;16.50;1.00;;;;;;5073352;28;20898;-80
2023/05/08 03:03:21;;;;;;;24.97;23.47;;;16.50;1.00;;;;;;5071414;28;20485;-80
2023/05/08 03:05:55;;;;;;;25.50;23.90;;;16.50;1.00;;;;;;5075847;28;21000;-79
2023/05/08 03:08:29;;;;;;;24.37;23.07;;;16.50;1.00;;;;;;5074303;28;20467;-80
2023/05/08 03:11:01;;;;;;;26.27;24.53;;;16.50;1.00;;;;;;5074091;28;20470;-80
2023/05/08 03:13:34;;;;;;;25.93;24.03;;;16.50;1.00;;;;;;5076959;28;20614;-79
2023/05/08 03:16:05;;;;;;;24.93;23.43;;;16.50;1.00;;;;;;5076592;28;20456;-79
2023/05/08 03:18:36;;;;;;;25.40;23.80;;;16.50;1.00;;;;;;5076914;28;20481;-79
2023/05/08 03:21:08;;;;;;;26.77;25.03;;;16.60;1.00;;;;;;5080998;28;20517;-80
2023/05/08 03:23:38;;;;;;;25.60;24.10;;;16.60;1.00;;;;;;5077041;28;20459;-79
2023/05/08 03:26:08;;;;;;;25.73;24.20;;;16.60;1.00;;;;;;5070114;28;20461;-80
2023/05/08 03:28:37;;;;;;;26.27;24.57;;;16.60;1.00;;;;;;5071372;28;20452;-80
2023/05/08 03:31:06;;;;;;;24.83;23.33;;;16.50;1.00;;;;;;5080006;28;20548;-80
2023/05/08 03:33:38;;;;;;;24.70;23.20;;;16.60;1.00;;;;;;5078135;28;20459;-80
2023/05/08 03:36:08;;;;;;;24.90;23.13;;;16.50;1.00;;;;;;5078392;28;20882;-80
2023/05/08 03:38:37;;;;;;;24.00;22.70;;;16.50;1.00;;;;;;5073998;28;20754;-80
2023/05/08 03:41:05;;;;;;;23.77;22.27;;;16.50;1.00;;;;;;5074637;28;21018;-80
2023/05/08 03:43:36;;;;;;;25.07;23.60;;;16.40;1.00;;;;;;5073916;28;20466;-79
2023/05/08 03:46:06;;;;;;;25.47;23.50;;;16.40;1.00;;;;;;5057119;28;20545;-80
2023/05/08 03:48:35;;;;;;;25.10;23.70;;;16.40;1.00;;;;;;5071739;28;20453;-78
2023/05/08 03:51:04;;;;;;;24.70;23.30;;;16.50;1.00;;;;;;5075736;28;20483;-79
2023/05/08 03:53:34;;;;;;;23.93;22.53;;;16.50;1.00;;;;;;5076049;28;20439;-80
2023/05/08 03:56:02;;;;;;;24.83;23.33;;;16.50;1.00;;;;;;5072248;28;20458;-79
2023/05/08 03:58:37;;;;;;;24.63;23.07;;;16.50;1.00;;;;;;5070788;28;20609;-79
2023/05/08 04:01:10;;;;;;;25.80;24.20;;;16.40;1.00;;;;;;5071028;28;20446;-80
2023/05/08 04:03:54;;;;;;;25.00;23.57;;;16.40;1.00;;;;;;5076531;28;20463;-78
2023/05/08 04:06:29;;;;;;;24.90;23.60;;;16.40;1.00;;;;;;5078472;28;20447;-78
2023/05/08 04:09:17;;;;;;;25.27;23.70;;;16.40;1.00;;;;;;5079219;28;20451;-80
2023/05/08 04:11:56;;;;;;;25.60;24.10;;;16.40;1.00;;;;;;5074874;28;21093;-79
2023/05/08 04:14:37;;;;;;;25.43;24.03;;;16.40;1.00;;;;;;5076935;28;20442;-83
2023/05/08 04:17:10;;;;;;;27.30;25.53;;;16.40;1.00;;;;;;5077507;28;20447;-82
2023/05/08 04:19:46;;;;;;;28.57;26.43;;;16.30;1.00;;;;;;5079489;28;20560;-82
2023/05/08 04:22:50;;;;;;;27.30;25.60;;;16.30;1.00;;;;;;5075178;28;20553;-81
2023/05/08 04:25:21;;;;;;;28.00;26.20;;;16.30;1.00;;;;;;5081630;28;20553;-82
2023/05/08 04:27:51;;;;;;;29.73;27.63;;;16.30;1.00;;;;;;5077290;28;20449;-82
2023/05/08 04:30:19;;;;;;;28.47;26.50;;;16.40;1.00;;;;;;5069968;28;20537;-81
2023/05/08 04:32:48;;;;;;;30.20;28.10;;;16.40;1.00;;;;;;5079199;28;20631;-76
2023/05/08 04:35:17;;;;;;;29.37;27.17;;;16.40;1.00;;;;;;5078245;28;20807;-75
2023/05/08 04:37:47;;;;;;;27.90;25.90;;;16.50;1.00;;;;;;5079210;28;20450;-76
2023/05/08 04:40:29;;;;;;;28.37;26.30;;;16.60;1.00;;;;;;5077049;28;20464;-86
2023/05/08 04:43:25;;;;;;;30.10;27.47;;;16.60;1.00;;;;;;5077941;28;20499;-87
2023/05/08 04:46:43;;;;;;;30.17;27.97;;;16.60;1.00;;;;;;5077342;28;20471;-85
2023/05/08 04:49:53;;;;;;;30.70;28.30;;;16.60;1.00;;;;;;4970912;28;20464;-89
2023/05/08 04:52:27;;;;;;;30.57;28.33;;;16.50;1.00;;;;;;5051113;28;20481;-85
2023/05/08 04:55:37;;;;;;;30.73;28.47;;;16.60;1.00;;;;;;5079667;28;20538;-84
2023/05/08 04:58:05;;;;;;;31.20;29.00;;;16.50;1.00;;;;;;5077010;28;20451;-81
2023/05/08 05:00:34;;;;;;;31.17;28.87;;;16.50;1.00;;;;;;5080430;28;20535;-81
2023/05/08 05:03:20;;;;;;;31.53;29.27;;;16.50;1.00;;;;;;5086425;28;20472;-81
2023/05/08 05:06:15;;;;;;;29.20;27.20;;;16.50;1.00;;;;;;5064055;28;20509;-81
2023/05/08 05:08:43;;;;;;;32.33;29.53;;;16.50;1.00;;;;;;5079751;28;20463;-79
2023/05/08 05:11:13;;;;;;;30.73;28.13;;;16.50;1.00;;;;;;5079548;28;20980;-81
2023/05/08 05:13:41;;;;;;;30.30;28.10;;;16.50;1.00;;;;;;5077825;28;20495;-79
2023/05/08 05:16:09;;;;;;;30.23;27.97;;;16.50;1.00;;;;;;5082042;28;20454;-80
2023/05/08 05:18:37;;;;;;;32.33;29.83;;;16.50;1.00;;;;;;5080462;28;20884;-79
2023/05/08 05:21:05;;;;;;;35.77;32.50;;;16.50;1.00;;;;;;5069101;28;20477;-80
2023/05/08 05:23:33;;;;;;;30.60;28.50;;;16.50;1.00;;;;;;5071401;28;22247;-79
2023/05/08 05:26:01;;;;;;;29.33;27.13;;;16.60;1.00;;;;;;5073200;28;20462;-78
2023/05/08 05:28:31;;;;;;;31.97;29.57;;;16.60;1.00;;;;;;5072521;28;20452;-77
2023/05/08 05:31:00;;;;;;;32.10;29.40;;;16.50;1.00;;;;;;5083799;28;20439;-80
2023/05/08 05:33:28;;;;;;;30.47;28.17;;;16.50;1.00;;;;;;5077763;28;20467;-79
2023/05/08 05:35:56;;;;;;;30.97;28.53;;;16.60;1.00;;;;;;5076440;28;20446;-80
2023/05/08 05:38:24;;;;;;;31.93;29.33;;;16.60;1.00;;;;;;5077633;28;20459;-79
2023/05/08 05:40:52;;;;;;;31.73;29.13;;;16.60;1.00;;;;;;5074855;28;20475;-79
2023/05/08 05:43:22;;;;;;;32.30;29.30;;;16.50;1.00;;;;;;5061258;28;21003;-79
2023/05/08 05:45:54;;;;;;;32.57;29.97;;;16.60;1.00;;;;;;5079501;28;20461;-78
2023/05/08 05:48:23;;;;;;;33.20;30.53;;;16.60;1.00;;;;;;5078886;28;20454;-79
2023/05/08 05:50:52;;;;;;;32.37;29.87;;;16.60;1.00;;;;;;5080168;28;20465;-78
2023/05/08 05:53:21;;;;;;;33.37;30.63;;;16.70;1.00;;;;;;5077682;28;20527;-79
2023/05/08 05:55:51;;;;;;;34.00;31.10;;;16.60;1.00;;;;;;5078796;28;20455;-79
2023/05/08 05:58:20;;;;;;;33.00;30.20;;;16.70;1.00;;;;;;5071386;28;20482;-78
2023/05/08 06:00:50;;;;;;;34.03;31.43;;;16.60;1.00;;;;;;5059160;28;20665;-79
2023/05/08 06:03:20;;;;;;;34.20;31.27;;;16.60;1.00;;;;;;5067547;28;20487;-79
2023/05/08 06:05:49;;;;;;;33.30;30.70;;;16.60;1.00;;;;;;5068755;28;20514;-80
2023/05/08 06:08:21;;;;;;;34.00;31.10;;;16.70;1.00;;;;;;5061348;28;20547;-80
2023/05/08 06:10:49;;;;;;;34.30;31.73;;;16.60;1.00;;;;;;5080826;28;20458;-79
2023/05/08 06:13:18;;;;;;;32.67;30.17;;;16.60;1.00;;;;;;5075106;28;20663;-80
2023/05/08 06:15:48;;;;;;;33.50;30.90;;;16.60;1.00;;;;;;5063035;28;20502;-80
2023/05/08 06:18:16;;;;;;;33.17;30.70;;;16.60;1.00;;;;;;5079688;28;20463;-80
2023/05/08 06:20:46;;;;;;;31.10;28.53;;;16.70;1.00;;;;;;5079249;28;20482;-79
2023/05/08 06:23:14;;;;;;;33.53;31.03;;;16.60;1.00;;;;;;5076530;28;20563;-79
2023/05/08 06:25:42;;;;;;;33.07;30.47;;;16.70;1.00;;;;;;5079080;28;21005;-80
2023/05/08 06:28:11;;;;;;;30.40;28.10;;;16.60;1.00;;;;;;5077729;28;20458;-79
2023/05/08 06:30:40;;;;;;;32.70;30.30;;;16.70;1.00;;;;;;5071788;28;20518;-79
2023/05/08 06:33:10;;;;;;;31.90;29.53;;;16.70;1.00;;;;;;5078766;28;20478;-79
2023/05/08 06:35:39;;;;;;;32.17;29.67;;;16.60;1.00;;;;;;5067321;28;20451;-79
2023/05/08 06:38:11;;;;;;;30.70;28.40;;;16.70;1.00;;;;;;5077296;28;20456;-78
2023/05/08 06:40:42;;;;;;;32.60;29.80;;;16.60;1.00;;;;;;5078432;28;21016;-79
2023/05/08 06:43:11;;;;;;;32.87;30.00;;;16.70;1.00;;;;;;5077177;28;20500;-79
2023/05/08 06:45:40;;;;;;;31.80;29.40;;;16.70;1.00;;;;;;5057879;28;20875;-79
2023/05/08 06:48:09;;;;;;;33.30;30.70;;;16.70;1.00;;;;;;5066745;28;20465;-79
2023/05/08 06:50:38;;;;;;;30.30;28.10;;;16.70;1.00;;;;;;5062376;28;20531;-79
2023/05/08 06:53:07;;;;;;;31.47;28.97;;;16.80;1.00;;;;;;5060491;28;20489;-79
2023/05/08 06:55:37;;;;;;;32.10;29.70;;;16.80;1.00;;;;;;5058154;28;20461;-79
2023/05/08 06:58:07;;;;;;;32.33;29.93;;;16.80;1.00;;;;;;5078739;28;20882;-78
2023/05/08 07:00:36;;;;;;;31.87;29.43;;;16.80;1.00;;;;;;5056638;28;20480;-79
2023/05/08 07:03:05;;;;;;;33.47;30.97;;;16.80;1.00;;;;;;5060772;28;20481;-78
2023/05/08 07:05:35;;;;;;;33.63;31.03;;;16.80;1.00;;;;;;5067708;28;20456;-78
2023/05/08 07:08:05;;;;;;;30.33;28.13;;;16.80;1.00;;;;;;5056943;28;20458;-80
2023/05/08 07:10:34;;;;;;;31.63;29.33;;;16.80;1.00;;;;;;5082070;28;20500;-79
2023/05/08 07:13:04;;;;;;;32.90;30.53;;;16.80;1.00;;;;;;5072119;28;20472;-79
2023/05/08 07:15:33;;;;;;;30.57;28.37;;;16.90;1.00;;;;;;5080524;28;20465;-80
2023/05/08 07:18:01;;;;;;;29.77;27.67;;;16.90;1.00;;;;;;5078423;28;20506;-80
2023/05/08 07:20:30;;;;;;;30.00;27.83;;;16.90;1.00;;;;;;5076789;28;21039;-80
2023/05/08 07:22:59;;;;;;;30.17;28.07;;;16.90;1.00;;;;;;5076244;28;20476;-78
2023/05/08 07:25:28;;;;;;;29.93;27.80;;;16.90;1.00;;;;;;5076429;28;20992;-80
2023/05/08 07:27:56;;;;;;;30.23;28.13;;;17.00;1.00;;;;;;5076456;28;20453;-81
2023/05/08 07:30:29;;;;;;;29.53;27.73;;;17.10;1.00;;;;;;5076320;28;20466;-80
2023/05/08 07:32:58;;;;;;;29.83;27.87;;;17.20;1.00;;;;;;5077789;28;20541;-79
2023/05/08 07:35:28;;;;;;;29.27;27.27;;;17.30;1.00;;;;;;5074418;28;20463;-80
2023/05/08 07:37:56;;;;;;;30.80;28.43;;;17.40;1.00;;;;;;5060966;28;20478;-81
2023/05/08 07:40:25;;;;;;;28.80;26.77;;;17.40;1.00;;;;;;5078609;28;20903;-80
2023/05/08 07:42:54;;;;;;;28.43;26.63;;;17.50;1.00;;;;;;5080199;28;20618;-80
2023/05/08 07:45:25;;;;;;;28.73;26.93;;;17.50;1.00;;;;;;5079063;28;20957;-80
2023/05/08 07:47:56;;;;;;;29.10;27.20;;;17.60;1.00;;;;;;5077555;28;20983;-79
2023/05/08 07:50:26;;;;;;;28.00;25.90;;;17.60;1.00;;;;;;5057008;28;20469;-80
2023/05/08 07:52:54;;;;;;;26.70;25.03;;;17.70;1.00;;;;;;5057138;28;20508;-78
2023/05/08 07:55:22;;;;;;;25.80;24.27;;;17.80;1.00;;;;;;5082631;28;20461;-79
2023/05/08 07:57:51;;;;;;;25.83;24.33;;;17.80;1.00;;;;;;5076692;28;20449;-80
2023/05/08 08:00:19;;;;;;;25.10;23.57;;;17.90;99.90;;;;;;5075402;28;20451;-79
2023/05/08 08:02:48;;;;;;;25.07;23.63;;;18.00;99.90;;;;;;5075929;28;20482;-80
2023/05/08 08:05:20;;;;;;;24.03;22.80;;;18.10;99.90;;;;;;5074983;28;20485;-79
2023/05/08 08:07:48;;;;;;;24.80;23.40;;;18.00;1.00;;;;;;5078978;28;20510;-80
2023/05/08 08:10:16;;;;;;;24.43;23.13;;;18.00;1.00;;;;;;5078272;28;20451;-79
2023/05/08 08:12:45;;;;;;;23.63;22.43;;;17.80;1.00;;;;;;5078198;28;20511;-79
2023/05/08 08:15:13;;;;;;;24.80;23.17;;;17.80;99.90;;;;;;5074109;28;20445;-80
2023/05/08 08:17:41;;;;;;;24.87;23.27;;;17.80;99.90;;;;;;5069525;28;20448;-80
2023/05/08 08:20:10;;;;;;;24.20;22.97;;;17.80;91.60;;;;;;5073739;28;21051;-80
2023/05/08 08:22:40;;;;;;;24.17;22.90;;;17.80;1.00;;;;;;5076487;28;20488;-80
2023/05/08 08:25:10;;;;;;;25.23;23.83;;;17.70;78.00;;;;;;5076331;28;20457;-79
2023/05/08 08:27:39;;;;;;;24.40;23.10;;;17.60;18.50;;;;;;5079059;28;20808;-79
2023/05/08 08:30:09;;;;;;;24.40;23.00;;;17.50;99.90;;;;;;5080963;28;20448;-78
2023/05/08 08:32:45;;;;;;;25.83;24.37;;;17.60;99.90;;;;;;5081013;28;20465;-80
2023/05/08 08:35:14;;;;;;;25.13;23.63;;;17.50;99.90;;;;;;5082408;28;20446;-80
2023/05/08 08:37:47;;;;;;;25.23;23.73;;;17.50;99.90;;;;;;5064990;28;20453;-79
2023/05/08 08:40:17;;;;;;;25.70;24.27;;;17.50;99.90;;;;;;5073312;28;20461;-79
2023/05/08 08:42:47;;;;;;;25.30;23.90;;;17.50;99.90;;;;;;5079333;28;20485;-79
2023/05/08 08:45:16;;;;;;;26.20;24.37;;;17.40;1.00;;;;;;5063428;28;20477;-80
2023/05/08 08:47:45;;;;;;;26.07;24.57;;;17.60;1.00;;;;;;5083138;28;20490;-81
2023/05/08 08:50:15;;;;;;;25.87;24.47;;;17.50;99.90;;;;;;5080297;28;20542;-81
2023/05/08 08:52:53;;;;;;;26.90;25.20;;;17.50;1.00;;;;;;5084329;28;20475;-80
2023/05/08 08:55:23;;;;;;;27.20;25.60;;;17.50;99.90;;;;;;5080676;28;20524;-79
2023/05/08 08:58:00;;;;;;;26.63;25.13;;;17.40;1.00;;;;;;5082028;28;20454;-80
2023/05/08 09:00:31;;;;;;;27.70;25.90;;;17.50;99.90;;;;;;5079542;28;20465;-79
2023/05/08 09:03:00;;;;;;;27.20;25.60;;;17.60;1.00;;;;;;5079265;28;20490;-80
2023/05/08 09:05:29;;;;;;;27.03;25.30;;;17.50;99.90;;;;;;5078406;28;20902;-79
2023/05/08 09:08:00;;;;;;;27.03;25.33;;;17.50;1.00;;;;;;5084251;28;20553;-81
2023/05/08 09:10:29;;;;;;;27.30;25.50;;;17.40;99.90;;;;;;5081422;28;20438;-81
2023/05/08 09:12:57;;;;;;;27.20;25.63;;;17.40;99.90;;;;;;5081841;28;20481;-81
2023/05/08 09:15:26;;;;;;;27.07;25.47;;;17.40;99.90;;;;;;5084019;28;20469;-80
2023/05/08 09:17:55;;;;;;;24.73;23.43;;;17.30;1.00;;;;;;5078960;28;20465;-79
2023/05/08 09:20:25;;;;;;;23.53;22.33;;;17.30;1.00;;;;;;5079538;28;20561;-81
2023/05/08 09:22:54;;;;;;;25.57;24.07;;;17.20;1.00;;;;;;5061247;28;20489;-80
2023/05/08 09:25:24;;;;;;;25.60;24.10;;;17.10;1.00;;;;;;5082266;28;20561;-79
2023/05/08 09:27:53;;;;;;;25.17;23.77;;;17.10;1.00;;;;;;5078533;28;20460;-80
2023/05/08 09:30:21;;;;;;;23.30;22.10;;;17.10;1.00;;;;;;5077402;28;20462;-78
2023/05/08 09:32:49;;;;;;;22.60;21.50;;;17.10;1.00;;;;;;5084491;28;21038;-80
2023/05/08 09:35:18;;;;;;;23.03;21.93;;;17.10;99.90;;;;;;5083226;28;20460;-80
2023/05/08 09:37:46;;;;;;;24.77;23.40;;;17.10;99.90;;;;;;5080214;28;20465;-81
2023/05/08 09:40:19;;;;;;;23.30;22.10;;;17.10;1.00;;;;;;5080418;28;20477;-80
2023/05/08 09:42:50;;;;;;;22.77;21.67;;;17.00;1.00;;;;;;5070192;28;20479;-80
2023/05/08 09:45:30;;;;;;;23.73;22.50;;;17.10;1.00;;;;;;5060222;28;20491;-79
2023/05/08 09:47:59;;;;;;;23.10;21.80;;;17.10;1.00;;;;;;5065063;28;20544;-79
2023/05/08 09:50:28;;;;;;;23.20;22.00;;;17.10;1.00;;;;;;5067273;28;20461;-81
2023/05/08 09:52:57;;;;;;;21.77;20.67;;;17.20;1.00;;;;;;5061228;28;20482;-79
2023/05/08 09:55:25;;;;;;;22.33;20.93;;;17.20;1.00;;;;;;5073195;28;20496;-80
2023/05/08 09:57:57;;;;;;;21.83;20.63;;;17.20;1.00;;;;;;5087664;28;20457;-79
2023/05/08 10:00:26;;;;;;;22.17;20.97;;;17.20;1.00;;;;;;5082083;28;20989;-79
2023/05/08 10:02:56;;;;;;;22.67;21.57;;;17.30;1.00;;;;;;5070057;28;20478;-80
2023/05/08 10:05:29;;;;;;;21.70;20.70;;;17.30;1.00;;;;;;5084274;28;20441;-79
2023/05/08 10:08:17;;;;;;;20.63;19.73;;;17.30;1.00;;;;;;5068207;28;20457;-80
2023/05/08 10:10:46;;;;;;;21.40;20.40;;;17.30;1.00;;;;;;5078977;28;20461;-79
2023/05/08 10:13:16;;;;;;;20.43;19.50;;;17.30;1.00;;;;;;5061787;28;20478;-81
2023/05/08 10:15:50;;;;;;;20.87;19.97;;;17.30;1.00;;;;;;5062330;28;20458;-80
2023/05/08 10:18:24;;;;;;;21.43;20.13;;;17.30;1.00;;;;;;5085549;28;20492;-80
2023/05/08 10:20:55;;;;;;;19.93;19.00;;;17.20;1.00;;;;;;5062038;28;20579;-79
2023/05/08 10:23:24;;;;;;;20.17;19.27;;;17.10;1.00;;;;;;5079061;28;21014;-81
2023/05/08 10:26:07;;;;;;;20.17;19.27;;;17.20;1.00;;;;;;5076775;28;20450;-79
2023/05/08 10:28:43;;;;;;;20.10;19.20;;;17.20;1.00;;;;;;5079991;28;20809;-80
2023/05/08 10:31:14;;;;;;;19.80;18.90;;;17.20;1.00;;;;;;5080512;28;20433;-80
2023/05/08 10:33:45;;;;;;;19.30;18.50;;;17.20;1.00;;;;;;5084255;28;20457;-79
2023/05/08 10:36:17;;;;;;;19.90;19.10;;;17.20;1.00;;;;;;5081502;28;20963;-81
2023/05/08 10:38:46;;;;;;;20.30;19.30;;;17.30;1.00;;;;;;5075209;28;20620;-80
2023/05/08 10:41:15;;;;;;;19.97;19.17;;;17.30;1.00;;;;;;5076516;28;20453;-80
2023/05/08 10:43:45;;;;;;;20.17;19.13;;;17.30;1.00;;;;;;5076942;28;20484;-80
2023/05/08 10:46:21;;;;;;;19.73;19.00;;;17.30;1.00;;;;;;5079104;28;20524;-79
2023/05/08 10:48:59;;;;;;;19.10;18.40;;;17.40;1.00;;;;;;5078618;28;20548;-79
2023/05/08 10:51:38;;;;;;;19.93;19.00;;;17.40;1.00;;;;;;5077281;28;20549;-80
2023/05/08 10:54:12;;;;;;;19.07;18.27;;;17.40;1.00;;;;;;5059964;28;20533;-81
2023/05/08 10:56:45;;;;;;;18.93;18.20;;;17.40;1.00;;;;;;5079316;28;20464;-81
2023/05/08 10:59:20;;;;;;;18.00;17.40;;;17.50;1.00;;;;;;5076490;28;20455;-80
2023/05/08 11:01:52;;;;;;;17.80;17.10;;;17.50;1.00;;;;;;5079724;28;20481;-82
2023/05/08 11:04:22;;;;;;;18.37;17.70;;;17.60;1.00;;;;;;5059874;28;20481;-80
2023/05/08 11:06:52;;;;;;;17.70;17.07;;;17.50;1.00;;;;;;5085505;28;20473;-80
2023/05/08 11:09:23;;;;;;;17.87;17.27;;;17.50;1.00;;;;;;5070647;28;20458;-81
2023/05/08 11:12:05;;;;;;;18.00;17.30;;;17.50;1.00;;;;;;5082628;28;20480;-82
2023/05/08 11:14:45;;;;;;;18.00;17.13;;;17.50;1.00;;;;;;5081580;28;20444;-80
2023/05/08 11:17:22;;;;;;;18.17;17.47;;;17.60;1.00;;;;;;5080721;28;20469;-80
2023/05/08 11:19:58;;;;;;;18.00;17.30;;;17.60;1.00;;;;;;5080331;28;20452;-81
2023/05/08 11:22:28;;;;;;;18.03;17.43;;;17.60;1.00;;;;;;5081699;28;20473;-80
2023/05/08 11:25:05;;;;;;;18.43;17.73;;;17.70;1.00;;;;;;5076386;28;20449;-82
2023/05/08 11:27:52;;;;;;;18.20;17.60;;;17.60;99.90;;;;;;5065257;28;20454;-81
2023/05/08 11:30:27;;;;;;;18.87;18.17;;;17.60;99.90;;;;;;5081435;28;20465;-80
2023/05/08 11:32:58;;;;;;;18.47;17.87;;;17.70;99.90;;;;;;5089451;28;20460;-79
2023/05/08 11:35:51;;;;;;;19.10;18.40;;;17.70;1.00;;;;;;5082274;28;20441;-82
2023/05/08 11:38:25;;;;;;;18.40;17.70;;;17.60;1.00;;;;;;5080265;28;20467;-81
2023/05/08 11:40:59;;;;;;;19.03;18.33;;;17.60;99.90;;;;;;5082760;28;20441;-80
2023/05/08 11:43:49;;;;;;;19.47;18.60;;;17.60;99.90;;;;;;5078900;28;20466;-81
2023/05/08 11:46:21;;;;;;;19.77;18.97;;;17.60;99.90;;;;;;5049251;28;20454;-79
2023/05/08 11:49:00;;;;;;;18.40;17.70;;;17.70;1.00;;;;;;5062603;28;20557;-82
2023/05/08 11:51:32;;;;;;;18.40;17.70;;;17.70;99.90;;;;;;5081731;28;20457;-80
2023/05/08 11:54:01;;;;;;;18.77;18.07;;;17.70;99.90;;;;;;5077997;28;20466;-81
2023/05/08 11:56:31;;;;;;;18.77;17.97;;;17.70;99.90;;;;;;5082804;28;20461;-82
2023/05/08 11:59:03;;;;;;;19.40;18.70;;;17.80;99.90;;;;;;5081768;28;20804;-80
2023/05/08 12:01:33;;;;;;;18.80;18.10;;;17.90;99.90;;;;;;5084914;28;20521;-79
2023/05/08 12:04:03;;;;;;;19.57;18.77;;;18.00;99.90;;;;;;5085371;28;20458;-80
2023/05/08 12:06:33;;;;;;;18.90;18.10;;;18.10;99.90;;;;;;5077386;28;20534;-80
2023/05/08 12:09:03;;;;;;;18.90;18.10;;;18.20;99.90;;;;;;5080509;28;20987;-80
2023/05/08 12:11:32;;;;;;;20.50;19.60;;;18.30;99.90;;;;;;5081315;28;20534;-80
2023/05/08 12:14:00;;;;;;;21.00;20.10;;;18.30;99.90;;;;;;5080927;28;21235;-80
2023/05/08 12:16:28;;;;;;;20.77;19.87;;;18.40;1.00;;;;;;5081288;28;20454;-80
2023/05/08 12:19:00;;;;;;;20.40;19.60;;;18.50;1.00;;;;;;5077264;28;20485;-83
2023/05/08 12:21:29;;;;;;;20.67;19.77;;;18.50;99.90;;;;;;5067561;28;20960;-81
2023/05/08 12:23:58;;;;;;;20.90;19.80;;;18.60;92.20;;;;;;5081276;28;20532;-82
2023/05/08 12:26:27;;;;;;;21.50;20.30;;;18.60;99.90;;;;;;5060564;28;20445;-81
2023/05/08 12:28:56;;;;;;;20.47;19.40;;;18.70;99.90;;;;;;5077925;28;20455;-78
2023/05/08 12:31:24;;;;;;;20.97;20.07;;;18.70;99.90;;;;;;5077942;28;20450;-79
2023/05/08 12:33:54;;;;;;;21.97;20.77;;;18.80;67.70;;;;;;5081897;28;20819;-79
2023/05/08 12:36:23;;;;;;;22.93;21.83;;;18.80;99.90;;;;;;5060888;28;20458;-80
2023/05/08 12:38:52;;;;;;;22.17;21.07;;;18.90;1.00;;;;;;5075643;28;20450;-79
2023/05/08 12:41:25;;;;;;;22.70;21.50;;;18.80;1.00;;;;;;5075037;28;20569;-80
2023/05/08 12:43:53;;;;;;;22.43;21.33;;;18.90;1.00;;;;;;5079811;28;20500;-79
2023/05/08 12:46:21;;;;;;;22.60;21.50;;;19.00;1.00;;;;;;5079624;28;20939;-80
2023/05/08 12:48:49;;;;;;;24.67;23.30;;;19.10;99.90;;;;;;5076953;28;20446;-80
2023/05/08 12:51:18;;;;;;;24.00;22.80;;;19.10;1.00;;;;;;5079213;28;20465;-81
2023/05/08 12:53:47;;;;;;;22.53;21.53;;;19.00;99.90;;;;;;5076761;28;20449;-80
2023/05/08 12:56:22;;;;;;;22.70;21.60;;;19.10;99.90;;;;;;5078123;28;20445;-80
2023/05/08 12:58:50;;;;;;;24.50;23.03;;;19.20;99.90;;;;;;5078805;28;20456;-79
2023/05/08 13:01:18;;;;;;;24.57;23.23;;;19.30;99.90;;;;;;5074959;28;20454;-80